sensor_id;sensor_type;location;lat;lon;timestamp;pressure;altitude;pressure_sealevel;temperature;humidity
75513;BME280;64090;49.770;18.760;2024-02-04T00:02:11;97726.63;;;6.42;92.35
75513;BME280;64090;49.770;18.760;2024-02-04T00:05:17;97719.62;;;6.43;92.18
75513;BME280;64090;49.770;18.760;2024-02-04T00:08:21;97719.02;;;6.42;91.85
75513;BME280;64090;49.770;18.760;2024-02-04T00:11:24;97711.61;;;6.42;92.01
75513;BME280;64090;49.770;18.760;2024-02-04T00:14:26;97710.67;;;6.40;92.25
75513;BME280;64090;49.770;18.760;2024-02-04T00:17:30;97708.52;;;6.42;91.80
75513;BME280;64090;49.770;18.760;2024-02-04T00:20:35;97701.11;;;6.44;91.81
75513;BME280;64090;49.770;18.760;2024-02-04T00:23:38;97700.42;;;6.42;92.24
75513;BME280;64090;49.770;18.760;2024-02-04T00:26:41;97693.67;;;6.39;92.46
75513;BME280;64090;49.770;18.760;2024-02-04T00:29:44;97686.35;;;6.40;92.17
75513;BME280;64090;49.770;18.760;2024-02-04T00:32:47;97686.95;;;6.40;92.19
75513;BME280;64090;49.770;18.760;2024-02-04T00:35:50;97686.95;;;6.39;92.20
75513;BME280;64090;49.770;18.760;2024-02-04T00:38:53;97684.98;;;6.41;92.33
75513;BME280;64090;49.770;18.760;2024-02-04T00:41:56;97688.32;;;6.42;92.16
75513;BME280;64090;49.770;18.760;2024-02-04T00:44:59;97692.77;;;6.41;92.22
75513;BME280;64090;49.770;18.760;2024-02-04T00:48:02;97697.52;;;6.40;92.40
75513;BME280;64090;49.770;18.760;2024-02-04T00:51:05;97684.73;;;6.38;92.56
75513;BME280;64090;49.770;18.760;2024-02-04T00:54:08;97682.66;;;6.37;92.45
75513;BME280;64090;49.770;18.760;2024-02-04T00:57:11;97681.16;;;6.38;92.26
75513;BME280;64090;49.770;18.760;2024-02-04T01:00:14;97690.45;;;6.40;92.25
75513;BME280;64090;49.770;18.760;2024-02-04T01:03:17;97685.73;;;6.41;92.28
75513;BME280;64090;49.770;18.760;2024-02-04T01:06:20;97681.73;;;6.44;92.36
75513;BME280;64090;49.770;18.760;2024-02-04T01:09:23;97678.93;;;6.46;92.25
75513;BME280;64090;49.770;18.760;2024-02-04T01:12:26;97681.13;;;6.47;92.05
75513;BME280;64090;49.770;18.760;2024-02-04T01:15:29;97676.58;;;6.53;91.84
75513;BME280;64090;49.770;18.760;2024-02-04T01:18:32;97671.61;;;6.52;92.05
75513;BME280;64090;49.770;18.760;2024-02-04T01:21:36;97672.25;;;6.51;92.28
75513;BME280;64090;49.770;18.760;2024-02-04T01:24:39;97679.86;;;6.52;92.23
75513;BME280;64090;49.770;18.760;2024-02-04T01:27:42;97678.24;;;6.56;92.11
75513;BME280;64090;49.770;18.760;2024-02-04T01:30:45;97686.27;;;6.56;92.27
75513;BME280;64090;49.770;18.760;2024-02-04T01:33:48;97680.10;;;6.59;92.18
75513;BME280;64090;49.770;18.760;2024-02-04T01:36:51;97683.80;;;6.60;92.07
75513;BME280;64090;49.770;18.760;2024-02-04T01:39:54;97684.45;;;6.62;91.82
75513;BME280;64090;49.770;18.760;2024-02-04T01:42:57;97683.33;;;6.59;92.08
75513;BME280;64090;49.770;18.760;2024-02-04T01:46:00;97674.70;;;6.57;92.43
75513;BME280;64090;49.770;18.760;2024-02-04T01:49:06;97676.30;;;6.56;92.55
75513;BME280;64090;49.770;18.760;2024-02-04T01:52:10;97679.49;;;6.55;92.30
75513;BME280;64090;49.770;18.760;2024-02-04T01:55:14;97679.29;;;6.57;92.23
75513;BME280;64090;49.770;18.760;2024-02-04T01:58:17;97679.01;;;6.55;92.42
75513;BME280;64090;49.770;18.760;2024-02-04T02:01:20;97667.49;;;6.54;92.48
75513;BME280;64090;49.770;18.760;2024-02-04T02:04:25;97669.25;;;6.54;92.45
75513;BME280;64090;49.770;18.760;2024-02-04T02:07:28;97669.31;;;6.53;92.41
75513;BME280;64090;49.770;18.760;2024-02-04T02:10:31;97669.50;;;6.55;92.54
75513;BME280;64090;49.770;18.760;2024-02-04T02:13:35;97668.48;;;6.58;92.24
75513;BME280;64090;49.770;18.760;2024-02-04T02:16:40;97670.31;;;6.55;92.17
75513;BME280;64090;49.770;18.760;2024-02-04T02:23:21;97664.61;;;6.56;92.16
75513;BME280;64090;49.770;18.760;2024-02-04T02:26:25;97657.41;;;6.59;92.06
75513;BME280;64090;49.770;18.760;2024-02-04T02:29:28;97652.48;;;6.60;91.92
75513;BME280;64090;49.770;18.760;2024-02-04T02:32:31;97655.48;;;6.63;91.59
75513;BME280;64090;49.770;18.760;2024-02-04T02:35:35;97657.92;;;6.60;91.87
75513;BME280;64090;49.770;18.760;2024-02-04T02:38:46;97660.84;;;6.60;91.91
75513;BME280;64090;49.770;18.760;2024-02-04T02:41:57;97645.60;;;6.57;91.84
75513;BME280;64090;49.770;18.760;2024-02-04T02:45:02;97635.59;;;6.53;92.10
75513;BME280;64090;49.770;18.760;2024-02-04T02:48:06;97636.59;;;6.55;92.07
75513;BME280;64090;49.770;18.760;2024-02-04T02:51:11;97632.15;;;6.54;92.09
75513;BME280;64090;49.770;18.760;2024-02-04T02:54:14;97628.58;;;6.54;91.90
75513;BME280;64090;49.770;18.760;2024-02-04T02:57:17;97637.11;;;6.55;92.04
75513;BME280;64090;49.770;18.760;2024-02-04T03:00:23;97633.58;;;6.55;91.94
75513;BME280;64090;49.770;18.760;2024-02-04T03:03:48;97636.69;;;6.53;92.20
75513;BME280;64090;49.770;18.760;2024-02-04T03:06:52;97639.52;;;6.51;92.53
75513;BME280;64090;49.770;18.760;2024-02-04T03:09:55;97638.45;;;6.48;92.62
75513;BME280;64090;49.770;18.760;2024-02-04T03:12:58;97640.22;;;6.46;92.55
75513;BME280;64090;49.770;18.760;2024-02-04T03:16:01;97646.91;;;6.45;92.98
75513;BME280;64090;49.770;18.760;2024-02-04T03:19:05;97643.45;;;6.46;92.87
75513;BME280;64090;49.770;18.760;2024-02-04T03:22:08;97644.81;;;6.42;93.50
75513;BME280;64090;49.770;18.760;2024-02-04T03:25:11;97659.88;;;6.41;93.77
75513;BME280;64090;49.770;18.760;2024-02-04T03:28:14;97659.20;;;6.42;93.79
75513;BME280;64090;49.770;18.760;2024-02-04T03:31:23;97665.42;;;6.40;93.92
75513;BME280;64090;49.770;18.760;2024-02-04T03:34:26;97663.54;;;6.38;94.18
75513;BME280;64090;49.770;18.760;2024-02-04T03:37:29;97676.02;;;6.35;94.30
75513;BME280;64090;49.770;18.760;2024-02-04T03:40:32;97678.00;;;6.33;94.86
75513;BME280;64090;49.770;18.760;2024-02-04T03:43:38;97663.64;;;6.31;95.03
75513;BME280;64090;49.770;18.760;2024-02-04T03:46:41;97669.00;;;6.29;95.14
75513;BME280;64090;49.770;18.760;2024-02-04T03:49:44;97675.26;;;6.27;95.50
75513;BME280;64090;49.770;18.760;2024-02-04T03:52:47;97676.27;;;6.25;95.51
75513;BME280;64090;49.770;18.760;2024-02-04T03:55:50;97668.63;;;6.23;95.96
75513;BME280;64090;49.770;18.760;2024-02-04T03:58:52;97667.10;;;6.24;95.74
75513;BME280;64090;49.770;18.760;2024-02-04T04:01:55;97678.13;;;6.20;96.76
75513;BME280;64090;49.770;18.760;2024-02-04T04:05:00;97671.43;;;6.19;96.79
75513;BME280;64090;49.770;18.760;2024-02-04T04:08:03;97666.14;;;6.17;96.64
75513;BME280;64090;49.770;18.760;2024-02-04T04:11:10;97665.52;;;6.17;96.79
75513;BME280;64090;49.770;18.760;2024-02-04T04:14:13;97673.17;;;6.19;96.78
75513;BME280;64090;49.770;18.760;2024-02-04T04:21:21;97677.36;;;6.21;96.70
75513;BME280;64090;49.770;18.760;2024-02-04T04:24:24;97675.77;;;6.21;96.53
75513;BME280;64090;49.770;18.760;2024-02-04T04:27:27;97680.70;;;6.22;96.63
75513;BME280;64090;49.770;18.760;2024-02-04T04:30:30;97680.34;;;6.24;96.70
75513;BME280;64090;49.770;18.760;2024-02-04T04:33:33;97678.05;;;6.25;96.28
75513;BME280;64090;49.770;18.760;2024-02-04T04:36:36;97683.55;;;6.30;95.89
75513;BME280;64090;49.770;18.760;2024-02-04T04:39:39;97683.98;;;6.29;96.11
75513;BME280;64090;49.770;18.760;2024-02-04T04:42:42;97679.73;;;6.27;96.25
75513;BME280;64090;49.770;18.760;2024-02-04T04:45:45;97672.52;;;6.27;96.06
75513;BME280;64090;49.770;18.760;2024-02-04T04:48:48;97665.38;;;6.21;96.73
75513;BME280;64090;49.770;18.760;2024-02-04T04:51:51;97661.70;;;6.19;96.42
75513;BME280;64090;49.770;18.760;2024-02-04T04:54:55;97650.19;;;6.16;96.62
75513;BME280;64090;49.770;18.760;2024-02-04T04:57:59;97644.77;;;6.12;96.88
75513;BME280;64090;49.770;18.760;2024-02-04T05:01:01;97641.45;;;6.09;96.64
75513;BME280;64090;49.770;18.760;2024-02-04T05:04:04;97643.09;;;6.05;97.39
75513;BME280;64090;49.770;18.760;2024-02-04T05:07:08;97637.91;;;6.04;96.90
75513;BME280;64090;49.770;18.760;2024-02-04T05:10:11;97637.64;;;6.05;96.87
75513;BME280;64090;49.770;18.760;2024-02-04T05:13:14;97641.51;;;6.05;96.77
75513;BME280;64090;49.770;18.760;2024-02-04T05:16:17;97635.73;;;6.06;96.92
75513;BME280;64090;49.770;18.760;2024-02-04T05:19:20;97634.30;;;6.06;96.88
75513;BME280;64090;49.770;18.760;2024-02-04T05:22:23;97638.09;;;6.04;97.30
75513;BME280;64090;49.770;18.760;2024-02-04T05:25:26;97639.26;;;6.06;96.80
75513;BME280;64090;49.770;18.760;2024-02-04T05:28:29;97635.30;;;6.09;96.36
75513;BME280;64090;49.770;18.760;2024-02-04T05:31:32;97639.52;;;6.11;96.13
75513;BME280;64090;49.770;18.760;2024-02-04T05:34:37;97651.86;;;6.16;95.88
75513;BME280;64090;49.770;18.760;2024-02-04T05:37:40;97663.13;;;6.19;95.58
75513;BME280;64090;49.770;18.760;2024-02-04T05:40:43;97688.13;;;6.21;95.72
75513;BME280;64090;49.770;18.760;2024-02-04T05:43:46;97706.00;;;6.21;95.80
75513;BME280;64090;49.770;18.760;2024-02-04T05:46:48;97708.52;;;6.24;95.27
75513;BME280;64090;49.770;18.760;2024-02-04T05:49:51;97701.77;;;6.26;95.54
75513;BME280;64090;49.770;18.760;2024-02-04T05:52:54;97711.31;;;6.25;95.48
75513;BME280;64090;49.770;18.760;2024-02-04T05:55:57;97728.85;;;6.31;94.88
75513;BME280;64090;49.770;18.760;2024-02-04T05:59:00;97741.79;;;6.34;94.38
75513;BME280;64090;49.770;18.760;2024-02-04T06:02:03;97735.56;;;6.36;93.94
75513;BME280;64090;49.770;18.760;2024-02-04T06:05:07;97726.39;;;6.39;93.13
75513;BME280;64090;49.770;18.760;2024-02-04T06:08:10;97726.77;;;6.40;91.63
75513;BME280;64090;49.770;18.760;2024-02-04T06:11:13;97733.75;;;6.46;89.83
75513;BME280;64090;49.770;18.760;2024-02-04T06:14:16;97732.36;;;6.50;89.99
75513;BME280;64090;49.770;18.760;2024-02-04T06:21:16;97740.45;;;6.49;90.19
75513;BME280;64090;49.770;18.760;2024-02-04T06:24:19;97735.46;;;6.51;89.50
75513;BME280;64090;49.770;18.760;2024-02-04T06:27:23;97744.70;;;6.52;89.76
75513;BME280;64090;49.770;18.760;2024-02-04T06:30:25;97732.53;;;6.53;89.95
75513;BME280;64090;49.770;18.760;2024-02-04T06:33:28;97743.13;;;6.58;89.73
75513;BME280;64090;49.770;18.760;2024-02-04T06:36:31;97719.79;;;6.54;90.13
75513;BME280;64090;49.770;18.760;2024-02-04T06:39:34;97720.20;;;6.50;90.40
75513;BME280;64090;49.770;18.760;2024-02-04T06:42:37;97712.61;;;6.47;90.50
75513;BME280;64090;49.770;18.760;2024-02-04T06:45:40;97709.80;;;6.46;90.62
75513;BME280;64090;49.770;18.760;2024-02-04T06:48:43;97704.45;;;6.46;90.39
75513;BME280;64090;49.770;18.760;2024-02-04T06:51:46;97703.98;;;6.49;90.28
75513;BME280;64090;49.770;18.760;2024-02-04T06:54:50;97696.94;;;6.50;90.32
75513;BME280;64090;49.770;18.760;2024-02-04T06:57:53;97685.36;;;6.53;90.39
75513;BME280;64090;49.770;18.760;2024-02-04T07:00:56;97685.67;;;6.55;90.71
75513;BME280;64090;49.770;18.760;2024-02-04T07:03:59;97684.27;;;6.57;90.64
75513;BME280;64090;49.770;18.760;2024-02-04T07:07:03;97685.00;;;6.59;90.77
75513;BME280;64090;49.770;18.760;2024-02-04T07:10:06;97682.26;;;6.60;90.92
75513;BME280;64090;49.770;18.760;2024-02-04T07:13:10;97675.10;;;6.63;91.00
75513;BME280;64090;49.770;18.760;2024-02-04T07:16:14;97681.34;;;6.66;91.25
75513;BME280;64090;49.770;18.760;2024-02-04T07:19:17;97686.75;;;6.70;91.29
75513;BME280;64090;49.770;18.760;2024-02-04T07:22:20;97693.19;;;6.69;91.43
75513;BME280;64090;49.770;18.760;2024-02-04T07:25:23;97684.95;;;6.72;91.38
75513;BME280;64090;49.770;18.760;2024-02-04T07:28:26;97696.25;;;6.76;91.09
75513;BME280;64090;49.770;18.760;2024-02-04T07:31:29;97702.89;;;6.76;91.49
75513;BME280;64090;49.770;18.760;2024-02-04T07:34:32;97705.05;;;6.80;91.30
75513;BME280;64090;49.770;18.760;2024-02-04T07:37:35;97695.26;;;6.86;91.36
75513;BME280;64090;49.770;18.760;2024-02-04T07:40:38;97694.67;;;6.93;91.35
75513;BME280;64090;49.770;18.760;2024-02-04T07:43:41;97696.63;;;6.98;91.40
75513;BME280;64090;49.770;18.760;2024-02-04T07:46:46;97693.83;;;6.95;91.54
75513;BME280;64090;49.770;18.760;2024-02-04T07:49:49;97693.63;;;6.95;91.54
75513;BME280;64090;49.770;18.760;2024-02-04T07:52:52;97703.05;;;6.91;91.66
75513;BME280;64090;49.770;18.760;2024-02-04T07:55:55;97702.55;;;6.84;91.82
75513;BME280;64090;49.770;18.760;2024-02-04T07:58:58;97700.23;;;6.78;91.89
75513;BME280;64090;49.770;18.760;2024-02-04T08:02:01;97703.85;;;6.76;91.88
75513;BME280;64090;49.770;18.760;2024-02-04T08:05:05;97707.14;;;6.78;92.17
75513;BME280;64090;49.770;18.760;2024-02-04T08:08:08;97709.48;;;6.77;92.28
75513;BME280;64090;49.770;18.760;2024-02-04T08:11:15;97718.08;;;6.74;92.49
75513;BME280;64090;49.770;18.760;2024-02-04T08:14:19;97717.55;;;6.67;93.58
75513;BME280;64090;49.770;18.760;2024-02-04T08:17:22;97718.90;;;6.46;94.86
75513;BME280;64090;49.770;18.760;2024-02-04T08:20:25;97729.50;;;6.31;96.17
75513;BME280;64090;49.770;18.760;2024-02-04T08:23:28;97728.11;;;6.27;96.22
75513;BME280;64090;49.770;18.760;2024-02-04T08:26:31;97735.61;;;6.25;96.77
75513;BME280;64090;49.770;18.760;2024-02-04T08:29:34;97729.65;;;6.16;97.60
75513;BME280;64090;49.770;18.760;2024-02-04T08:32:37;97733.79;;;6.23;97.28
75513;BME280;64090;49.770;18.760;2024-02-04T08:35:40;97741.53;;;6.24;97.13
75513;BME280;64090;49.770;18.760;2024-02-04T08:38:43;97740.85;;;6.18;97.22
75513;BME280;64090;49.770;18.760;2024-02-04T08:41:46;97739.48;;;6.19;97.06
75513;BME280;64090;49.770;18.760;2024-02-04T08:44:49;97752.39;;;6.20;97.16
75513;BME280;64090;49.770;18.760;2024-02-04T08:47:52;97748.14;;;6.36;96.97
75513;BME280;64090;49.770;18.760;2024-02-04T08:50:55;97754.27;;;6.31;97.27
75513;BME280;64090;49.770;18.760;2024-02-04T08:53:58;97754.36;;;6.26;97.24
75513;BME280;64090;49.770;18.760;2024-02-04T08:57:01;97759.96;;;6.25;97.40
75513;BME280;64090;49.770;18.760;2024-02-04T09:00:04;97748.76;;;6.17;97.38
75513;BME280;64090;49.770;18.760;2024-02-04T09:03:07;97743.89;;;6.19;96.96
75513;BME280;64090;49.770;18.760;2024-02-04T09:06:10;97742.42;;;6.44;96.94
75513;BME280;64090;49.770;18.760;2024-02-04T09:09:13;97737.09;;;6.77;96.50
75513;BME280;64090;49.770;18.760;2024-02-04T09:12:16;97726.91;;;6.87;96.73
75513;BME280;64090;49.770;18.760;2024-02-04T09:15:19;97720.81;;;7.00;96.85
75513;BME280;64090;49.770;18.760;2024-02-04T09:18:21;97728.40;;;7.18;96.56
75513;BME280;64090;49.770;18.760;2024-02-04T09:21:25;97734.28;;;7.32;96.19
75513;BME280;64090;49.770;18.760;2024-02-04T09:24:29;97727.11;;;7.37;95.93
75513;BME280;64090;49.770;18.760;2024-02-04T09:27:32;97722.56;;;7.39;96.00
75513;BME280;64090;49.770;18.760;2024-02-04T09:30:35;97725.52;;;7.46;95.64
75513;BME280;64090;49.770;18.760;2024-02-04T09:33:39;97723.41;;;7.59;95.37
75513;BME280;64090;49.770;18.760;2024-02-04T09:36:43;97722.53;;;7.78;94.96
75513;BME280;64090;49.770;18.760;2024-02-04T09:39:47;97710.41;;;7.97;93.55
75513;BME280;64090;49.770;18.760;2024-02-04T09:42:50;97706.89;;;8.26;93.02
75513;BME280;64090;49.770;18.760;2024-02-04T09:45:55;97704.98;;;8.55;92.25
75513;BME280;64090;49.770;18.760;2024-02-04T09:48:58;97694.19;;;8.74;90.71
75513;BME280;64090;49.770;18.760;2024-02-04T09:52:07;97681.83;;;8.95;88.62
75513;BME280;64090;49.770;18.760;2024-02-04T09:55:11;97678.42;;;9.01;88.25
75513;BME280;64090;49.770;18.760;2024-02-04T09:58:15;97678.23;;;9.02;85.25
75513;BME280;64090;49.770;18.760;2024-02-04T10:01:19;97677.35;;;8.98;86.12
75513;BME280;64090;49.770;18.760;2024-02-04T10:04:22;97678.73;;;8.90;85.24
75513;BME280;64090;49.770;18.760;2024-02-04T10:07:25;97668.64;;;8.85;85.32
75513;BME280;64090;49.770;18.760;2024-02-04T10:10:29;97660.27;;;8.83;85.00
75513;BME280;64090;49.770;18.760;2024-02-04T10:13:46;97653.48;;;8.89;85.45
75513;BME280;64090;49.770;18.760;2024-02-04T10:16:49;97652.02;;;8.81;84.25
75513;BME280;64090;49.770;18.760;2024-02-04T10:19:53;97649.80;;;8.76;84.17
75513;BME280;64090;49.770;18.760;2024-02-04T10:22:55;97647.67;;;8.68;83.73
75513;BME280;64090;49.770;18.760;2024-02-04T10:25:59;97643.16;;;8.73;83.26
75513;BME280;64090;49.770;18.760;2024-02-04T10:29:06;97633.98;;;8.78;82.70
75513;BME280;64090;49.770;18.760;2024-02-04T10:32:09;97624.56;;;9.05;82.94
75513;BME280;64090;49.770;18.760;2024-02-04T10:35:12;97633.55;;;9.08;82.62
75513;BME280;64090;49.770;18.760;2024-02-04T10:38:15;97637.73;;;9.03;80.56
75513;BME280;64090;49.770;18.760;2024-02-04T10:41:18;97621.55;;;9.10;79.58
75513;BME280;64090;49.770;18.760;2024-02-04T10:44:23;97622.90;;;9.35;78.98
75513;BME280;64090;49.770;18.760;2024-02-04T10:47:31;97628.23;;;9.47;78.56
75513;BME280;64090;49.770;18.760;2024-02-04T10:50:37;97621.17;;;9.46;78.47
75513;BME280;64090;49.770;18.760;2024-02-04T10:53:42;97618.98;;;9.41;78.61
75513;BME280;64090;49.770;18.760;2024-02-04T10:56:55;97609.97;;;9.38;79.65
75513;BME280;64090;49.770;18.760;2024-02-04T10:59:59;97601.25;;;9.44;80.15
75513;BME280;64090;49.770;18.760;2024-02-04T11:03:04;97593.90;;;9.46;80.58
75513;BME280;64090;49.770;18.760;2024-02-04T11:06:08;97590.38;;;9.58;80.17
75513;BME280;64090;49.770;18.760;2024-02-04T11:09:14;97582.39;;;9.47;80.12
75513;BME280;64090;49.770;18.760;2024-02-04T11:12:21;97579.06;;;9.60;80.63
75513;BME280;64090;49.770;18.760;2024-02-04T11:15:26;97573.98;;;9.54;80.91
75513;BME280;64090;49.770;18.760;2024-02-04T11:25:54;97561.54;;;8.81;83.12
75513;BME280;64090;49.770;18.760;2024-02-04T11:29:01;97554.33;;;8.83;83.69
75513;BME280;64090;49.770;18.760;2024-02-04T11:32:05;97542.96;;;8.78;83.72
75513;BME280;64090;49.770;18.760;2024-02-04T11:35:09;97538.01;;;8.80;83.61
75513;BME280;64090;49.770;18.760;2024-02-04T11:38:17;97527.90;;;8.84;83.80
75513;BME280;64090;49.770;18.760;2024-02-04T11:41:24;97528.11;;;8.72;84.13
75513;BME280;64090;49.770;18.760;2024-02-04T11:44:28;97526.78;;;8.57;84.42
75513;BME280;64090;49.770;18.760;2024-02-04T11:47:33;97525.13;;;8.65;84.34
75513;BME280;64090;49.770;18.760;2024-02-04T11:50:37;97525.96;;;8.77;83.22
75513;BME280;64090;49.770;18.760;2024-02-04T11:53:41;97523.84;;;9.06;82.99
75513;BME280;64090;49.770;18.760;2024-02-04T11:56:44;97511.57;;;9.34;82.27
75513;BME280;64090;49.770;18.760;2024-02-04T11:59:47;97512.34;;;9.54;82.16
75513;BME280;64090;49.770;18.760;2024-02-04T12:03:06;97507.15;;;9.73;81.58
75513;BME280;64090;49.770;18.760;2024-02-04T12:06:09;97493.43;;;9.77;81.00
75513;BME280;64090;49.770;18.760;2024-02-04T12:09:18;97480.53;;;9.75;79.98
75513;BME280;64090;49.770;18.760;2024-02-04T12:12:22;97474.52;;;9.74;80.03
75513;BME280;64090;49.770;18.760;2024-02-04T12:15:25;97479.35;;;9.77;80.27
75513;BME280;64090;49.770;18.760;2024-02-04T12:18:29;97474.23;;;9.80;80.69
75513;BME280;64090;49.770;18.760;2024-02-04T12:21:32;97479.05;;;9.85;80.52
75513;BME280;64090;49.770;18.760;2024-02-04T12:24:36;97475.50;;;9.77;80.69
75513;BME280;64090;49.770;18.760;2024-02-04T12:27:40;97465.74;;;9.76;80.97
75513;BME280;64090;49.770;18.760;2024-02-04T12:30:52;97464.08;;;9.74;81.56
75513;BME280;64090;49.770;18.760;2024-02-04T12:33:59;97458.32;;;9.76;81.80
75513;BME280;64090;49.770;18.760;2024-02-04T12:37:04;97441.94;;;9.78;81.56
75513;BME280;64090;49.770;18.760;2024-02-04T12:40:08;97445.48;;;9.79;81.86
75513;BME280;64090;49.770;18.760;2024-02-04T12:43:11;97436.97;;;9.70;81.58
75513;BME280;64090;49.770;18.760;2024-02-04T12:46:14;97442.09;;;9.57;81.71
75513;BME280;64090;49.770;18.760;2024-02-04T12:49:21;97437.58;;;9.43;82.18
75513;BME280;64090;49.770;18.760;2024-02-04T12:52:27;97427.15;;;9.46;82.28
75513;BME280;64090;49.770;18.760;2024-02-04T12:55:30;97417.27;;;9.47;81.73
75513;BME280;64090;49.770;18.760;2024-02-04T12:58:42;97408.17;;;9.46;81.97
75513;BME280;64090;49.770;18.760;2024-02-04T13:01:44;97396.08;;;9.48;81.49
75513;BME280;64090;49.770;18.760;2024-02-04T13:04:47;97385.35;;;9.54;81.50
75513;BME280;64090;49.770;18.760;2024-02-04T13:08:02;97376.71;;;9.63;81.00
75513;BME280;64090;49.770;18.760;2024-02-04T13:11:07;97372.12;;;9.69;80.75
75513;BME280;64090;49.770;18.760;2024-02-04T13:14:10;97385.05;;;9.60;81.22
75513;BME280;64090;49.770;18.760;2024-02-04T13:17:13;97373.64;;;9.68;80.93
75513;BME280;64090;49.770;18.760;2024-02-04T13:20:16;97374.53;;;9.71;80.55
75513;BME280;64090;49.770;18.760;2024-02-04T13:23:19;97372.67;;;9.64;80.71
75513;BME280;64090;49.770;18.760;2024-02-04T13:26:22;97371.73;;;9.65;80.74
75513;BME280;64090;49.770;18.760;2024-02-04T13:29:25;97360.23;;;9.59;80.99
75513;BME280;64090;49.770;18.760;2024-02-04T13:32:28;97358.73;;;9.53;80.78
75513;BME280;64090;49.770;18.760;2024-02-04T13:35:31;97366.01;;;9.46;80.78
75513;BME280;64090;49.770;18.760;2024-02-04T13:38:35;97374.11;;;9.32;80.91
75513;BME280;64090;49.770;18.760;2024-02-04T13:41:41;97383.02;;;9.08;81.47
75513;BME280;64090;49.770;18.760;2024-02-04T13:44:44;97377.48;;;8.86;82.33
75513;BME280;64090;49.770;18.760;2024-02-04T13:47:47;97370.77;;;8.77;82.60
75513;BME280;64090;49.770;18.760;2024-02-04T13:50:50;97371.68;;;8.71;82.63
75513;BME280;64090;49.770;18.760;2024-02-04T13:53:53;97379.97;;;8.60;82.89
75513;BME280;64090;49.770;18.760;2024-02-04T13:56:56;97380.38;;;8.60;83.03
75513;BME280;64090;49.770;18.760;2024-02-04T13:59:59;97389.23;;;8.61;82.87
75513;BME280;64090;49.770;18.760;2024-02-04T14:03:03;97385.48;;;8.64;82.70
75513;BME280;64090;49.770;18.760;2024-02-04T14:06:06;97392.17;;;8.64;82.85
75513;BME280;64090;49.770;18.760;2024-02-04T14:09:09;97385.86;;;8.68;83.08
75513;BME280;64090;49.770;18.760;2024-02-04T14:12:15;97383.00;;;8.65;82.98
75513;BME280;64090;49.770;18.760;2024-02-04T14:15:18;97383.68;;;8.63;83.03
75513;BME280;64090;49.770;18.760;2024-02-04T14:18:21;97385.77;;;8.64;83.06
75513;BME280;64090;49.770;18.760;2024-02-04T14:21:24;97380.83;;;8.63;83.02
75513;BME280;64090;49.770;18.760;2024-02-04T14:24:27;97376.33;;;8.57;83.33
75513;BME280;64090;49.770;18.760;2024-02-04T14:27:29;97365.98;;;8.56;83.28
75513;BME280;64090;49.770;18.760;2024-02-04T14:30:33;97370.44;;;8.59;83.25
75513;BME280;64090;49.770;18.760;2024-02-04T14:33:35;97362.73;;;8.58;83.19
75513;BME280;64090;49.770;18.760;2024-02-04T14:36:38;97363.54;;;8.59;83.21
75513;BME280;64090;49.770;18.760;2024-02-04T14:39:41;97357.48;;;8.62;83.01
75513;BME280;64090;49.770;18.760;2024-02-04T14:42:44;97345.40;;;8.61;82.85
75513;BME280;64090;49.770;18.760;2024-02-04T14:45:47;97340.97;;;8.61;82.93
75513;BME280;64090;49.770;18.760;2024-02-04T14:48:50;97329.59;;;8.66;82.70
75513;BME280;64090;49.770;18.760;2024-02-04T14:51:55;97323.20;;;8.65;82.71
75513;BME280;64090;49.770;18.760;2024-02-04T14:54:57;97323.08;;;8.64;82.49
75513;BME280;64090;49.770;18.760;2024-02-04T14:58:00;97324.37;;;8.56;82.80
75513;BME280;64090;49.770;18.760;2024-02-04T15:01:04;97322.54;;;8.57;82.54
75513;BME280;64090;49.770;18.760;2024-02-04T15:04:08;97326.03;;;8.54;82.66
75513;BME280;64090;49.770;18.760;2024-02-04T15:07:11;97323.02;;;8.49;82.87
75513;BME280;64090;49.770;18.760;2024-02-04T15:10:14;97320.77;;;8.44;82.95
75513;BME280;64090;49.770;18.760;2024-02-04T15:13:17;97316.23;;;8.41;82.82
75513;BME280;64090;49.770;18.760;2024-02-04T15:16:20;97317.89;;;8.38;82.94
75513;BME280;64090;49.770;18.760;2024-02-04T15:19:26;97305.56;;;8.41;82.26
75513;BME280;64090;49.770;18.760;2024-02-04T15:22:30;97303.40;;;8.41;82.19
75513;BME280;64090;49.770;18.760;2024-02-04T15:25:34;97303.08;;;8.36;82.56
75513;BME280;64090;49.770;18.760;2024-02-04T15:28:37;97300.84;;;8.35;82.64
75513;BME280;64090;49.770;18.760;2024-02-04T15:31:41;97296.02;;;8.32;82.38
75513;BME280;64090;49.770;18.760;2024-02-04T15:34:44;97297.45;;;8.34;82.37
75513;BME280;64090;49.770;18.760;2024-02-04T15:37:47;97302.38;;;8.30;82.37
75513;BME280;64090;49.770;18.760;2024-02-04T15:40:50;97303.52;;;8.30;82.46
75513;BME280;64090;49.770;18.760;2024-02-04T15:43:53;97293.33;;;8.23;82.62
75513;BME280;64090;49.770;18.760;2024-02-04T15:46:56;97294.42;;;8.16;82.75
75513;BME280;64090;49.770;18.760;2024-02-04T15:50:01;97298.91;;;8.09;82.91
75513;BME280;64090;49.770;18.760;2024-02-04T15:53:04;97290.88;;;8.03;82.69
75513;BME280;64090;49.770;18.760;2024-02-04T15:56:07;97288.03;;;8.00;82.78
75513;BME280;64090;49.770;18.760;2024-02-04T15:59:13;97301.00;;;7.94;83.09
75513;BME280;64090;49.770;18.760;2024-02-04T16:02:16;97309.05;;;7.93;84.26
75513;BME280;64090;49.770;18.760;2024-02-04T16:05:20;97300.05;;;7.93;84.94
75513;BME280;64090;49.770;18.760;2024-02-04T16:08:24;97301.40;;;7.90;85.47
75513;BME280;64090;49.770;18.760;2024-02-04T16:11:29;97302.64;;;7.87;85.69
75513;BME280;64090;49.770;18.760;2024-02-04T16:14:39;97302.63;;;7.80;85.66
75513;BME280;64090;49.770;18.760;2024-02-04T16:17:48;97294.66;;;7.84;85.27
75513;BME280;64090;49.770;18.760;2024-02-04T16:20:51;97286.52;;;7.86;85.25
75513;BME280;64090;49.770;18.760;2024-02-04T16:23:54;97287.54;;;7.85;85.20
75513;BME280;64090;49.770;18.760;2024-02-04T16:26:57;97288.18;;;7.86;85.05
75513;BME280;64090;49.770;18.760;2024-02-04T16:30:00;97290.34;;;7.84;85.11
75513;BME280;64090;49.770;18.760;2024-02-04T16:33:03;97288.98;;;7.88;84.97